sensor_id;sensor_type;location;lat;lon;timestamp;temperature;humidity
6373;DHT22;3219;51.362;7.074;2022-09-23T04:36:16;11.10;99.90
6373;DHT22;3219;51.362;7.074;2022-09-23T04:38:43;11.30;99.90
6373;DHT22;3219;51.362;7.074;2022-09-23T04:41:10;11.20;99.90
6373;DHT22;3219;51.362;7.074;2022-09-23T04:43:36;11.30;99.90
6373;DHT22;3219;51.362;7.074;2022-09-23T04:46:05;11.20;99.90
6373;DHT22;3219;51.362;7.074;2022-09-23T04:48:35;11.20;99.90
6373;DHT22;3219;51.362;7.074;2022-09-23T04:51:02;11.20;99.90
6373;DHT22;3219;51.362;7.074;2022-09-23T04:53:29;11.20;99.90
6373;DHT22;3219;51.362;7.074;2022-09-23T04:56:00;11.10;99.90
6373;DHT22;3219;51.362;7.074;2022-09-23T04:58:27;11.10;99.90
6373;DHT22;3219;51.362;7.074;2022-09-23T05:00:54;11.10;99.90
6373;DHT22;3219;51.362;7.074;2022-09-23T05:03:21;11.10;99.90
6373;DHT22;3219;51.362;7.074;2022-09-23T05:05:51;11.10;99.90
6373;DHT22;3219;51.362;7.074;2022-09-23T05:08:19;11.10;99.90
6373;DHT22;3219;51.362;7.074;2022-09-23T05:10:46;11.00;99.90
6373;DHT22;3219;51.362;7.074;2022-09-23T05:13:13;11.10;99.90
6373;DHT22;3219;51.362;7.074;2022-09-23T05:15:40;11.10;99.90
6373;DHT22;3219;51.362;7.074;2022-09-23T05:18:07;11.10;99.90
6373;DHT22;3219;51.362;7.074;2022-09-23T05:20:34;11.10;99.90
6373;DHT22;3219;51.362;7.074;2022-09-23T05:23:02;11.10;99.90
6373;DHT22;3219;51.362;7.074;2022-09-23T05:25:28;11.10;99.90
6373;DHT22;3219;51.362;7.074;2022-09-23T05:27:55;11.10;99.90
6373;DHT22;3219;51.362;7.074;2022-09-23T05:30:22;11.10;99.90
6373;DHT22;3219;51.362;7.074;2022-09-23T05:32:48;11.10;99.90
6373;DHT22;3219;51.362;7.074;2022-09-23T05:35:15;11.10;99.90
6373;DHT22;3219;51.362;7.074;2022-09-23T05:37:42;11.20;99.90
6373;DHT22;3219;51.362;7.074;2022-09-23T05:40:10;11.20;99.90
6373;DHT22;3219;51.362;7.074;2022-09-23T05:42:37;11.20;99.90
6373;DHT22;3219;51.362;7.074;2022-09-23T05:45:05;11.20;99.90
6373;DHT22;3219;51.362;7.074;2022-09-23T05:47:32;11.30;99.90
6373;DHT22;3219;51.362;7.074;2022-09-23T05:49:58;11.40;99.90
6373;DHT22;3219;51.362;7.074;2022-09-23T05:52:25;11.40;99.90
6373;DHT22;3219;51.362;7.074;2022-09-23T05:54:52;11.40;99.90
6373;DHT22;3219;51.362;7.074;2022-09-23T05:57:20;11.50;99.90
6373;DHT22;3219;51.362;7.074;2022-09-23T05:59:46;11.60;99.90
6373;DHT22;3219;51.362;7.074;2022-09-23T06:02:13;11.70;99.90
6373;DHT22;3219;51.362;7.074;2022-09-23T06:04:40;11.80;99.90
6373;DHT22;3219;51.362;7.074;2022-09-23T06:07:07;12.10;99.90
6373;DHT22;3219;51.362;7.074;2022-09-23T06:09:34;12.40;99.90
6373;DHT22;3219;51.362;7.074;2022-09-23T06:12:01;12.70;99.90
6373;DHT22;3219;51.362;7.074;2022-09-23T06:14:29;12.80;99.90
6373;DHT22;3219;51.362;7.074;2022-09-23T06:16:56;13.10;99.90
6373;DHT22;3219;51.362;7.074;2022-09-23T06:19:22;13.50;99.90
6373;DHT22;3219;51.362;7.074;2022-09-23T06:21:49;13.80;99.90
6373;DHT22;3219;51.362;7.074;2022-09-23T06:24:16;13.80;99.90
6373;DHT22;3219;51.362;7.074;2022-09-23T06:26:43;13.80;99.90
6373;DHT22;3219;51.362;7.074;2022-09-23T06:29:10;13.60;99.90
6373;DHT22;3219;51.362;7.074;2022-09-23T06:31:38;13.50;99.90
6373;DHT22;3219;51.362;7.074;2022-09-23T06:34:07;13.40;99.90
6373;DHT22;3219;51.362;7.074;2022-09-23T06:36:34;13.30;99.90
6373;DHT22;3219;51.362;7.074;2022-09-23T06:39:01;13.20;99.90
6373;DHT22;3219;51.362;7.074;2022-09-23T06:41:28;13.20;99.90
6373;DHT22;3219;51.362;7.074;2022-09-23T06:43:55;13.30;99.90
6373;DHT22;3219;51.362;7.074;2022-09-23T06:46:22;13.40;99.90
6373;DHT22;3219;51.362;7.074;2022-09-23T06:48:50;13.50;99.90
6373;DHT22;3219;51.362;7.074;2022-09-23T06:51:16;13.50;99.90
6373;DHT22;3219;51.362;7.074;2022-09-23T06:53:45;13.70;99.90
6373;DHT22;3219;51.362;7.074;2022-09-23T06:56:12;13.80;99.90
6373;DHT22;3219;51.362;7.074;2022-09-23T06:58:39;13.90;99.90
6373;DHT22;3219;51.362;7.074;2022-09-23T07:01:07;14.00;99.90
6373;DHT22;3219;51.362;7.074;2022-09-23T07:03:35;14.20;99.90
6373;DHT22;3219;51.362;7.074;2022-09-23T07:06:04;14.40;99.90
6373;DHT22;3219;51.362;7.074;2022-09-23T07:08:32;14.50;99.90
6373;DHT22;3219;51.362;7.074;2022-09-23T07:11:00;14.70;99.90
6373;DHT22;3219;51.362;7.074;2022-09-23T07:13:27;14.90;99.90
6373;DHT22;3219;51.362;7.074;2022-09-23T07:15:58;15.10;99.90
6373;DHT22;3219;51.362;7.074;2022-09-23T07:18:26;15.50;99.90
6373;DHT22;3219;51.362;7.074;2022-09-23T07:20:54;16.20;99.90
6373;DHT22;3219;51.362;7.074;2022-09-23T07:23:24;16.60;99.90
6373;DHT22;3219;51.362;7.074;2022-09-23T07:25:51;16.60;99.90
6373;DHT22;3219;51.362;7.074;2022-09-23T07:28:18;16.60;99.90
6373;DHT22;3219;51.362;7.074;2022-09-23T07:30:45;16.50;99.90
6373;DHT22;3219;51.362;7.074;2022-09-23T07:33:12;16.40;99.90
6373;DHT22;3219;51.362;7.074;2022-09-23T07:35:40;16.40;99.90
6373;DHT22;3219;51.362;7.074;2022-09-23T07:38:08;16.30;99.90
6373;DHT22;3219;51.362;7.074;2022-09-23T07:40:36;16.30;99.90
6373;DHT22;3219;51.362;7.074;2022-09-23T07:43:04;16.30;99.90
6373;DHT22;3219;51.362;7.074;2022-09-23T07:45:31;16.20;99.90
6373;DHT22;3219;51.362;7.074;2022-09-23T07:47:58;16.20;99.90
6373;DHT22;3219;51.362;7.074;2022-09-23T07:50:26;16.20;99.90
6373;DHT22;3219;51.362;7.074;2022-09-23T07:52:52;16.30;99.90
6373;DHT22;3219;51.362;7.074;2022-09-23T07:55:19;16.30;99.90
6373;DHT22;3219;51.362;7.074;2022-09-23T07:57:47;16.40;99.90
6373;DHT22;3219;51.362;7.074;2022-09-23T08:00:14;16.30;99.90
6373;DHT22;3219;51.362;7.074;2022-09-23T08:02:41;16.40;99.90
6373;DHT22;3219;51.362;7.074;2022-09-23T08:05:08;16.40;99.90
6373;DHT22;3219;51.362;7.074;2022-09-23T08:07:35;16.40;99.90
6373;DHT22;3219;51.362;7.074;2022-09-23T08:10:02;16.30;99.90
6373;DHT22;3219;51.362;7.074;2022-09-23T08:12:28;16.30;99.90
6373;DHT22;3219;51.362;7.074;2022-09-23T08:14:56;16.20;99.90
6373;DHT22;3219;51.362;7.074;2022-09-23T08:17:24;16.10;99.90
6373;DHT22;3219;51.362;7.074;2022-09-23T08:19:51;16.10;99.90
6373;DHT22;3219;51.362;7.074;2022-09-23T08:22:18;16.00;99.90
6373;DHT22;3219;51.362;7.074;2022-09-23T08:24:45;16.00;99.90
6373;DHT22;3219;51.362;7.074;2022-09-23T08:27:12;16.00;99.90
6373;DHT22;3219;51.362;7.074;2022-09-23T08:29:38;16.00;99.90
6373;DHT22;3219;51.362;7.074;2022-09-23T08:32:06;16.00;99.90
6373;DHT22;3219;51.362;7.074;2022-09-23T08:34:33;16.00;99.90
6373;DHT22;3219;51.362;7.074;2022-09-23T08:37:01;16.00;99.90
6373;DHT22;3219;51.362;7.074;2022-09-23T08:39:27;16.00;99.90
6373;DHT22;3219;51.362;7.074;2022-09-23T08:42:05;16.00;99.90
6373;DHT22;3219;51.362;7.074;2022-09-23T08:44:45;16.00;99.90
6373;DHT22;3219;51.362;7.074;2022-09-23T08:47:20;16.10;99.90
6373;DHT22;3219;51.362;7.074;2022-09-23T08:49:55;16.10;99.90
6373;DHT22;3219;51.362;7.074;2022-09-23T08:52:31;16.10;99.90
6373;DHT22;3219;51.362;7.074;2022-09-23T08:55:00;16.20;99.90
6373;DHT22;3219;51.362;7.074;2022-09-23T08:57:36;16.30;99.90
6373;DHT22;3219;51.362;7.074;2022-09-23T09:00:05;16.30;99.90
6373;DHT22;3219;51.362;7.074;2022-09-23T09:02:34;16.30;99.90
6373;DHT22;3219;51.362;7.074;2022-09-23T09:05:06;16.30;99.90
6373;DHT22;3219;51.362;7.074;2022-09-23T09:07:36;16.40;99.90
6373;DHT22;3219;51.362;7.074;2022-09-23T09:10:10;16.30;99.90
6373;DHT22;3219;51.362;7.074;2022-09-23T09:12:43;16.40;99.90
6373;DHT22;3219;51.362;7.074;2022-09-23T09:15:12;16.40;99.90
6373;DHT22;3219;51.362;7.074;2022-09-23T09:17:46;16.40;99.90
6373;DHT22;3219;51.362;7.074;2022-09-23T09:20:44;16.40;99.90
6373;DHT22;3219;51.362;7.074;2022-09-23T09:23:20;16.40;99.90
6373;DHT22;3219;51.362;7.074;2022-09-23T09:25:48;16.40;99.90
6373;DHT22;3219;51.362;7.074;2022-09-23T09:28:19;16.40;99.90
6373;DHT22;3219;51.362;7.074;2022-09-23T09:30:51;16.40;99.90
6373;DHT22;3219;51.362;7.074;2022-09-23T09:33:25;16.40;99.90
6373;DHT22;3219;51.362;7.074;2022-09-23T09:36:04;16.40;99.90
6373;DHT22;3219;51.362;7.074;2022-09-23T09:38:33;16.50;99.90
6373;DHT22;3219;51.362;7.074;2022-09-23T09:41:10;16.50;99.90
6373;DHT22;3219;51.362;7.074;2022-09-23T09:43:37;16.50;99.90
6373;DHT22;3219;51.362;7.074;2022-09-23T09:46:15;16.60;99.90
6373;DHT22;3219;51.362;7.074;2022-09-23T09:48:51;16.70;99.90
6373;DHT22;3219;51.362;7.074;2022-09-23T09:51:22;16.80;99.90
6373;DHT22;3219;51.362;7.074;2022-09-23T09:53:50;16.80;99.90
6373;DHT22;3219;51.362;7.074;2022-09-23T09:56:18;16.90;99.90
6373;DHT22;3219;51.362;7.074;2022-09-23T09:58:49;17.00;99.90
6373;DHT22;3219;51.362;7.074;2022-09-23T10:01:19;17.10;99.90
6373;DHT22;3219;51.362;7.074;2022-09-23T10:03:48;17.20;99.90
6373;DHT22;3219;51.362;7.074;2022-09-23T10:06:18;17.20;99.90
6373;DHT22;3219;51.362;7.074;2022-09-23T10:11:30;17.40;99.90
6373;DHT22;3219;51.362;7.074;2022-09-23T10:14:03;17.40;99.90
6373;DHT22;3219;51.362;7.074;2022-09-23T10:16:32;17.50;99.90
6373;DHT22;3219;51.362;7.074;2022-09-23T10:19:02;17.50;99.90
6373;DHT22;3219;51.362;7.074;2022-09-23T10:21:32;17.60;99.90
6373;DHT22;3219;51.362;7.074;2022-09-23T10:24:02;17.70;99.90
6373;DHT22;3219;51.362;7.074;2022-09-23T10:26:31;17.70;99.90
6373;DHT22;3219;51.362;7.074;2022-09-23T10:29:00;17.80;99.90
6373;DHT22;3219;51.362;7.074;2022-09-23T10:31:29;17.80;99.90
6373;DHT22;3219;51.362;7.074;2022-09-23T10:33:58;17.90;99.90
6373;DHT22;3219;51.362;7.074;2022-09-23T10:36:28;17.80;99.90
6373;DHT22;3219;51.362;7.074;2022-09-23T10:38:58;17.90;99.90
6373;DHT22;3219;51.362;7.074;2022-09-23T10:41:54;17.90;99.90
6373;DHT22;3219;51.362;7.074;2022-09-23T10:44:54;17.90;99.90
6373;DHT22;3219;51.362;7.074;2022-09-23T10:47:48;17.90;99.90
6373;DHT22;3219;51.362;7.074;2022-09-23T10:50:27;18.00;99.90
6373;DHT22;3219;51.362;7.074;2022-09-23T10:53:05;18.00;99.90
6373;DHT22;3219;51.362;7.074;2022-09-23T10:55:42;18.00;99.90
6373;DHT22;3219;51.362;7.074;2022-09-23T10:58:39;18.10;99.90
6373;DHT22;3219;51.362;7.074;2022-09-23T11:01:20;18.00;99.90
6373;DHT22;3219;51.362;7.074;2022-09-23T11:03:52;18.00;99.90
6373;DHT22;3219;51.362;7.074;2022-09-23T11:06:25;18.10;99.90
6373;DHT22;3219;51.362;7.074;2022-09-23T11:09:11;18.10;99.90
6373;DHT22;3219;51.362;7.074;2022-09-23T11:11:49;18.20;99.90
6373;DHT22;3219;51.362;7.074;2022-09-23T11:14:43;18.30;99.90
6373;DHT22;3219;51.362;7.074;2022-09-23T11:17:26;18.40;99.90
6373;DHT22;3219;51.362;7.074;2022-09-23T11:20:17;18.40;99.90
6373;DHT22;3219;51.362;7.074;2022-09-23T11:23:03;18.40;99.90
6373;DHT22;3219;51.362;7.074;2022-09-23T11:25:39;18.50;99.90
6373;DHT22;3219;51.362;7.074;2022-09-23T11:28:27;18.60;99.90
6373;DHT22;3219;51.362;7.074;2022-09-23T11:31:05;18.70;99.90
6373;DHT22;3219;51.362;7.074;2022-09-23T11:33:47;18.80;99.90
6373;DHT22;3219;51.362;7.074;2022-09-23T11:36:23;18.80;99.90
6373;DHT22;3219;51.362;7.074;2022-09-23T11:38:52;18.80;99.90
6373;DHT22;3219;51.362;7.074;2022-09-23T11:41:26;18.80;99.90
6373;DHT22;3219;51.362;7.074;2022-09-23T11:43:59;18.80;99.90
6373;DHT22;3219;51.362;7.074;2022-09-23T11:46:33;18.70;99.90
6373;DHT22;3219;51.362;7.074;2022-09-23T11:49:06;18.80;99.90
6373;DHT22;3219;51.362;7.074;2022-09-23T11:51:41;18.80;99.90
6373;DHT22;3219;51.362;7.074;2022-09-23T11:54:14;18.80;99.90
6373;DHT22;3219;51.362;7.074;2022-09-23T11:56:44;18.80;99.90
6373;DHT22;3219;51.362;7.074;2022-09-23T11:59:17;18.70;99.90
6373;DHT22;3219;51.362;7.074;2022-09-23T12:01:53;18.70;99.90
6373;DHT22;3219;51.362;7.074;2022-09-23T12:04:25;18.70;99.90
6373;DHT22;3219;51.362;7.074;2022-09-23T12:06:59;18.60;99.90
6373;DHT22;3219;51.362;7.074;2022-09-23T12:09:31;18.70;99.90
6373;DHT22;3219;51.362;7.074;2022-09-23T12:12:05;18.70;99.90
6373;DHT22;3219;51.362;7.074;2022-09-23T12:14:52;18.70;99.90
6373;DHT22;3219;51.362;7.074;2022-09-23T12:17:28;18.70;99.90
6373;DHT22;3219;51.362;7.074;2022-09-23T12:20:23;18.80;99.90
6373;DHT22;3219;51.362;7.074;2022-09-23T12:23:00;18.80;99.90
6373;DHT22;3219;51.362;7.074;2022-09-23T12:25:36;18.90;99.90
6373;DHT22;3219;51.362;7.074;2022-09-23T12:28:13;18.80;99.90
6373;DHT22;3219;51.362;7.074;2022-09-23T12:30:41;18.80;99.90
6373;DHT22;3219;51.362;7.074;2022-09-23T12:33:15;18.80;99.90
6373;DHT22;3219;51.362;7.074;2022-09-23T12:35:46;18.80;99.90
6373;DHT22;3219;51.362;7.074;2022-09-23T12:38:14;18.80;99.90
6373;DHT22;3219;51.362;7.074;2022-09-23T12:40:44;18.80;99.90
6373;DHT22;3219;51.362;7.074;2022-09-23T12:43:26;18.80;99.90
6373;DHT22;3219;51.362;7.074;2022-09-23T12:46:16;18.70;99.90
6373;DHT22;3219;51.362;7.074;2022-09-23T12:48:45;18.70;99.90
6373;DHT22;3219;51.362;7.074;2022-09-23T12:51:18;18.70;99.90
6373;DHT22;3219;51.362;7.074;2022-09-23T12:56:57;18.60;99.90
6373;DHT22;3219;51.362;7.074;2022-09-23T12:59:27;18.50;99.90
6373;DHT22;3219;51.362;7.074;2022-09-23T13:01:55;18.50;99.90
6373;DHT22;3219;51.362;7.074;2022-09-23T13:04:30;18.40;99.90
6373;DHT22;3219;51.362;7.074;2022-09-23T13:07:17;18.40;99.90
6373;DHT22;3219;51.362;7.074;2022-09-23T13:09:47;18.30;99.90
6373;DHT22;3219;51.362;7.074;2022-09-23T13:12:18;18.30;99.90
6373;DHT22;3219;51.362;7.074;2022-09-23T13:14:49;18.30;99.90
6373;DHT22;3219;51.362;7.074;2022-09-23T13:17:22;18.20;99.90
6373;DHT22;3219;51.362;7.074;2022-09-23T13:19:58;18.20;99.90
6373;DHT22;3219;51.362;7.074;2022-09-23T13:23:01;18.10;99.90
6373;DHT22;3219;51.362;7.074;2022-09-23T13:25:32;18.10;99.90
6373;DHT22;3219;51.362;7.074;2022-09-23T13:28:01;18.00;99.90
6373;DHT22;3219;51.362;7.074;2022-09-23T13:30:29;17.90;99.90
6373;DHT22;3219;51.362;7.074;2022-09-23T13:33:04;17.90;99.90
6373;DHT22;3219;51.362;7.074;2022-09-23T13:35:33;17.90;99.90
6373;DHT22;3219;51.362;7.074;2022-09-23T13:38:08;17.80;99.90
6373;DHT22;3219;51.362;7.074;2022-09-23T13:40:39;17.80;99.90
6373;DHT22;3219;51.362;7.074;2022-09-23T13:43:14;17.80;99.90
6373;DHT22;3219;51.362;7.074;2022-09-23T13:45:44;17.70;99.90
6373;DHT22;3219;51.362;7.074;2022-09-23T13:48:13;17.70;99.90
6373;DHT22;3219;51.362;7.074;2022-09-23T13:50:43;17.70;99.90
6373;DHT22;3219;51.362;7.074;2022-09-23T13:53:19;17.70;99.90
6373;DHT22;3219;51.362;7.074;2022-09-23T13:55:58;17.60;99.90
6373;DHT22;3219;51.362;7.074;2022-09-23T13:58:28;17.60;99.90
6373;DHT22;3219;51.362;7.074;2022-09-23T14:00:56;17.60;99.90
6373;DHT22;3219;51.362;7.074;2022-09-23T14:03:26;17.60;99.90
6373;DHT22;3219;51.362;7.074;2022-09-23T14:05:55;17.50;99.90
6373;DHT22;3219;51.362;7.074;2022-09-23T14:08:23;17.50;99.90
6373;DHT22;3219;51.362;7.074;2022-09-23T14:10:50;17.50;99.90
6373;DHT22;3219;51.362;7.074;2022-09-23T14:13:20;17.40;99.90
6373;DHT22;3219;51.362;7.074;2022-09-23T14:15:49;17.40;99.90
6373;DHT22;3219;51.362;7.074;2022-09-23T14:18:31;17.40;99.90
6373;DHT22;3219;51.362;7.074;2022-09-23T14:20:59;17.30;99.90
6373;DHT22;3219;51.362;7.074;2022-09-23T14:23:25;17.20;99.90
6373;DHT22;3219;51.362;7.074;2022-09-23T14:25:53;17.20;99.90
6373;DHT22;3219;51.362;7.074;2022-09-23T14:28:22;17.20;99.90
6373;DHT22;3219;51.362;7.074;2022-09-23T14:30:51;17.10;99.90
6373;DHT22;3219;51.362;7.074;2022-09-23T14:33:25;17.10;99.90
6373;DHT22;3219;51.362;7.074;2022-09-23T14:35:54;17.10;99.90
6373;DHT22;3219;51.362;7.074;2022-09-23T14:38:24;17.10;99.90
6373;DHT22;3219;51.362;7.074;2022-09-23T14:41:15;17.10;99.90
6373;DHT22;3219;51.362;7.074;2022-09-23T14:43:49;17.00;99.90
6373;DHT22;3219;51.362;7.074;2022-09-23T14:46:18;17.10;99.90
6373;DHT22;3219;51.362;7.074;2022-09-23T14:49:02;17.00;99.90
6373;DHT22;3219;51.362;7.074;2022-09-23T14:51:35;17.00;99.90
6373;DHT22;3219;51.362;7.074;2022-09-23T14:54:26;17.00;99.90
6373;DHT22;3219;51.362;7.074;2022-09-23T14:56:54;17.00;99.90
6373;DHT22;3219;51.362;7.074;2022-09-23T14:59:25;16.90;99.90
6373;DHT22;3219;51.362;7.074;2022-09-23T15:01:52;17.00;99.90
6373;DHT22;3219;51.362;7.074;2022-09-23T15:04:29;17.00;99.90
6373;DHT22;3219;51.362;7.074;2022-09-23T15:06:59;17.00;99.90
6373;DHT22;3219;51.362;7.074;2022-09-23T15:09:29;17.00;99.90
6373;DHT22;3219;51.362;7.074;2022-09-23T15:11:59;17.00;99.90
6373;DHT22;3219;51.362;7.074;2022-09-23T15:14:28;17.00;99.90
6373;DHT22;3219;51.362;7.074;2022-09-23T15:16:57;17.00;99.90
6373;DHT22;3219;51.362;7.074;2022-09-23T15:19:24;17.00;99.90
6373;DHT22;3219;51.362;7.074;2022-09-23T15:21:54;16.90;99.90
6373;DHT22;3219;51.362;7.074;2022-09-23T15:24:39;16.90;99.90
6373;DHT22;3219;51.362;7.074;2022-09-23T15:27:27;16.90;99.90
6373;DHT22;3219;51.362;7.074;2022-09-23T15:29:55;16.80;99.90
6373;DHT22;3219;51.362;7.074;2022-09-23T15:32:26;16.80;99.90
6373;DHT22;3219;51.362;7.074;2022-09-23T15:34:53;16.80;99.90
6373;DHT22;3219;51.362;7.074;2022-09-23T15:37:21;16.80;99.90
6373;DHT22;3219;51.362;7.074;2022-09-23T15:39:48;16.70;99.90
6373;DHT22;3219;51.362;7.074;2022-09-23T15:42:15;16.70;99.90
6373;DHT22;3219;51.362;7.074;2022-09-23T15:44:43;16.70;99.90
6373;DHT22;3219;51.362;7.074;2022-09-23T15:47:12;16.70;99.90
6373;DHT22;3219;51.362;7.074;2022-09-23T15:49:44;16.70;99.90
6373;DHT22;3219;51.362;7.074;2022-09-23T15:52:12;16.60;99.90
6373;DHT22;3219;51.362;7.074;2022-09-23T15:54:42;16.60;99.90
6373;DHT22;3219;51.362;7.074;2022-09-23T15:57:09;16.60;99.90
6373;DHT22;3219;51.362;7.074;2022-09-23T15:59:36;16.50;99.90
6373;DHT22;3219;51.362;7.074;2022-09-23T16:02:05;16.50;99.90
6373;DHT22;3219;51.362;7.074;2022-09-23T16:04:33;16.40;99.90
6373;DHT22;3219;51.362;7.074;2022-09-23T16:07:00;16.40;99.90
6373;DHT22;3219;51.362;7.074;2022-09-23T16:09:28;16.40;99.90
6373;DHT22;3219;51.362;7.074;2022-09-23T16:11:57;16.30;99.90
6373;DHT22;3219;51.362;7.074;2022-09-23T16:14:26;16.30;99.90
6373;DHT22;3219;51.362;7.074;2022-09-23T16:16:52;16.30;99.90
6373;DHT22;3219;51.362;7.074;2022-09-23T16:19:19;16.20;99.90
6373;DHT22;3219;51.362;7.074;2022-09-23T16:21:46;16.20;99.90
6373;DHT22;3219;51.362;7.074;2022-09-23T16:24:14;16.20;99.90
6373;DHT22;3219;51.362;7.074;2022-09-23T16:26:43;16.20;99.90
6373;DHT22;3219;51.362;7.074;2022-09-23T16:29:12;16.10;99.90
6373;DHT22;3219;51.362;7.074;2022-09-23T16:31:39;16.10;99.90
6373;DHT22;3219;51.362;7.074;2022-09-23T16:34:06;16.10;99.90
6373;DHT22;3219;51.362;7.074;2022-09-23T16:36:34;16.00;99.90
6373;DHT22;3219;51.362;7.074;2022-09-23T16:39:04;16.00;99.90
6373;DHT22;3219;51.362;7.074;2022-09-23T16:41:31;16.00;99.90
6373;DHT22;3219;51.362;7.074;2022-09-23T16:43:59;15.90;99.90
6373;DHT22;3219;51.362;7.074;2022-09-23T16:46:28;15.90;99.90
6373;DHT22;3219;51.362;7.074;2022-09-23T16:48:56;15.90;99.90
6373;DHT22;3219;51.362;7.074;2022-09-23T16:51:24;15.80;99.90
6373;DHT22;3219;51.362;7.074;2022-09-23T16:53:53;15.80;99.90
6373;DHT22;3219;51.362;7.074;2022-09-23T16:56:22;15.80;99.90
6373;DHT22;3219;51.362;7.074;2022-09-23T16:58:50;15.80;99.90
6373;DHT22;3219;51.362;7.074;2022-09-23T17:01:19;15.80;99.90
6373;DHT22;3219;51.362;7.074;2022-09-23T17:04:05;15.70;99.90
6373;DHT22;3219;51.362;7.074;2022-09-23T17:06:32;15.70;99.90
6373;DHT22;3219;51.362;7.074;2022-09-23T17:08:59;15.70;99.90
6373;DHT22;3219;51.362;7.074;2022-09-23T17:11:27;15.60;99.90
6373;DHT22;3219;51.362;7.074;2022-09-23T17:13:54;15.60;99.90
6373;DHT22;3219;51.362;7.074;2022-09-23T17:16:23;15.60;99.90
6373;DHT22;3219;51.362;7.074;2022-09-23T17:18:51;15.60;99.90
6373;DHT22;3219;51.362;7.074;2022-09-23T17:21:22;15.50;99.90
6373;DHT22;3219;51.362;7.074;2022-09-23T17:23:50;15.50;99.90
6373;DHT22;3219;51.362;7.074;2022-09-23T17:26:17;15.50;99.90
6373;DHT22;3219;51.362;7.074;2022-09-23T17:28:44;15.40;99.90
6373;DHT22;3219;51.362;7.074;2022-09-23T17:31:11;15.40;99.90
6373;DHT22;3219;51.362;7.074;2022-09-23T17:33:38;15.40;99.90
6373;DHT22;3219;51.362;7.074;2022-09-23T17:36:07;15.30;99.90
6373;DHT22;3219;51.362;7.074;2022-09-23T17:38:36;15.30;99.90
6373;DHT22;3219;51.362;7.074;2022-09-23T17:41:04;15.20;99.90
6373;DHT22;3219;51.362;7.074;2022-09-23T17:43:31;15.20;99.90
6373;DHT22;3219;51.362;7.074;2022-09-23T17:46:03;15.20;99.90
6373;DHT22;3219;51.362;7.074;2022-09-23T17:48:31;15.10;99.90
6373;DHT22;3219;51.362;7.074;2022-09-23T17:50:59;15.10;99.90
6373;DHT22;3219;51.362;7.074;2022-09-23T17:53:28;15.10;99.90
6373;DHT22;3219;51.362;7.074;2022-09-23T17:55:58;15.10;99.90
6373;DHT22;3219;51.362;7.074;2022-09-23T17:58:27;15.00;99.90
6373;DHT22;3219;51.362;7.074;2022-09-23T18:00:54;15.00;99.90
6373;DHT22;3219;51.362;7.074;2022-09-23T18:03:22;14.90;99.90
6373;DHT22;3219;51.362;7.074;2022-09-23T18:05:49;14.90;99.90
6373;DHT22;3219;51.362;7.074;2022-09-23T18:08:16;14.90;99.90
6373;DHT22;3219;51.362;7.074;2022-09-23T18:10:42;14.90;99.90
6373;DHT22;3219;51.362;7.074;2022-09-23T18:13:11;14.90;99.90
6373;DHT22;3219;51.362;7.074;2022-09-23T18:15:38;14.80;99.90
6373;DHT22;3219;51.362;7.074;2022-09-23T18:18:06;14.80;99.90
6373;DHT22;3219;51.362;7.074;2022-09-23T18:20:32;14.80;99.90
6373;DHT22;3219;51.362;7.074;2022-09-23T18:22:59;14.70;99.90
6373;DHT22;3219;51.362;7.074;2022-09-23T18:25:26;14.70;99.90
6373;DHT22;3219;51.362;7.074;2022-09-23T18:27:53;14.70;99.90
6373;DHT22;3219;51.362;7.074;2022-09-23T18:30:22;14.60;99.90
6373;DHT22;3219;51.362;7.074;2022-09-23T18:32:49;14.60;99.90
6373;DHT22;3219;51.362;7.074;2022-09-23T18:35:16;14.60;99.90
6373;DHT22;3219;51.362;7.074;2022-09-23T18:37:43;14.50;99.90
6373;DHT22;3219;51.362;7.074;2022-09-23T18:40:10;14.50;99.90
6373;DHT22;3219;51.362;7.074;2022-09-23T18:42:37;14.50;99.90
6373;DHT22;3219;51.362;7.074;2022-09-23T18:45:06;14.40;99.90
6373;DHT22;3219;51.362;7.074;2022-09-23T18:47:36;14.40;99.90
6373;DHT22;3219;51.362;7.074;2022-09-23T18:50:20;14.40;99.90
6373;DHT22;3219;51.362;7.074;2022-09-23T18:53:06;14.40;99.90
6373;DHT22;3219;51.362;7.074;2022-09-23T18:55:33;14.30;99.90
6373;DHT22;3219;51.362;7.074;2022-09-23T18:58:00;14.30;99.90
6373;DHT22;3219;51.362;7.074;2022-09-23T19:00:27;14.30;99.90
6373;DHT22;3219;51.362;7.074;2022-09-23T19:02:55;14.20;99.90
6373;DHT22;3219;51.362;7.074;2022-09-23T19:05:22;14.20;99.90
6373;DHT22;3219;51.362;7.074;2022-09-23T19:07:49;14.20;99.90
6373;DHT22;3219;51.362;7.074;2022-09-23T19:10:16;14.20;99.90
6373;DHT22;3219;51.362;7.074;2022-09-23T19:12:43;14.20;99.90
6373;DHT22;3219;51.362;7.074;2022-09-23T19:15:11;14.20;99.90
6373;DHT22;3219;51.362;7.074;2022-09-23T19:17:38;14.20;99.90
6373;DHT22;3219;51.362;7.074;2022-09-23T19:20:07;14.10;99.90
6373;DHT22;3219;51.362;7.074;2022-09-23T19:22:34;14.10;99.90
6373;DHT22;3219;51.362;7.074;2022-09-23T19:25:01;14.10;99.90
6373;DHT22;3219;51.362;7.074;2022-09-23T19:27:28;14.10;99.90
6373;DHT22;3219;51.362;7.074;2022-09-23T19:29:54;14.10;99.90
6373;DHT22;3219;51.362;7.074;2022-09-23T19:32:22;14.20;99.90
6373;DHT22;3219;51.362;7.074;2022-09-23T19:34:51;14.10;99.90
6373;DHT22;3219;51.362;7.074;2022-09-23T19:37:20;14.10;99.90
6373;DHT22;3219;51.362;7.074;2022-09-23T19:39:46;14.20;99.90
6373;DHT22;3219;51.362;7.074;2022-09-23T19:42:14;14.20;99.90
6373;DHT22;3219;51.362;7.074;2022-09-23T19:44:41;14.10;99.90
6373;DHT22;3219;51.362;7.074;2022-09-23T19:47:08;14.10;99.90
6373;DHT22;3219;51.362;7.074;2022-09-23T19:49:39;14.10;99.90
6373;DHT22;3219;51.362;7.074;2022-09-23T19:52:06;14.10;99.90
6373;DHT22;3219;51.362;7.074;2022-09-23T19:54:35;14.00;99.90
6373;DHT22;3219;51.362;7.074;2022-09-23T19:57:02;14.00;99.90
6373;DHT22;3219;51.362;7.074;2022-09-23T19:59:29;14.00;99.90
6373;DHT22;3219;51.362;7.074;2022-09-23T20:01:55;14.00;99.90
6373;DHT22;3219;51.362;7.074;2022-09-23T20:04:22;14.00;99.90
6373;DHT22;3219;51.362;7.074;2022-09-23T20:06:49;14.00;99.90
6373;DHT22;3219;51.362;7.074;2022-09-23T20:09:16;13.90;99.90
6373;DHT22;3219;51.362;7.074;2022-09-23T20:11:44;13.90;99.90
6373;DHT22;3219;51.362;7.074;2022-09-23T20:14:10;13.90;99.90
6373;DHT22;3219;51.362;7.074;2022-09-23T20:16:37;13.90;99.90
6373;DHT22;3219;51.362;7.074;2022-09-23T20:19:05;13.90;99.90
6373;DHT22;3219;51.362;7.074;2022-09-23T20:21:32;13.90;99.90
6373;DHT22;3219;51.362;7.074;2022-09-23T20:24:00;13.90;99.90
6373;DHT22;3219;51.362;7.074;2022-09-23T20:26:28;13.90;99.90
6373;DHT22;3219;51.362;7.074;2022-09-23T20:29:14;13.90;99.90
6373;DHT22;3219;51.362;7.074;2022-09-23T20:31:41;13.90;99.90
6373;DHT22;3219;51.362;7.074;2022-09-23T20:34:09;13.90;99.90
6373;DHT22;3219;51.362;7.074;2022-09-23T20:36:37;13.90;99.90
6373;DHT22;3219;51.362;7.074;2022-09-23T20:39:05;13.90;99.90
6373;DHT22;3219;51.362;7.074;2022-09-23T20:41:34;13.90;99.90
6373;DHT22;3219;51.362;7.074;2022-09-23T20:44:04;13.90;99.90
6373;DHT22;3219;51.362;7.074;2022-09-23T20:46:33;13.90;99.90
6373;DHT22;3219;51.362;7.074;2022-09-23T20:49:00;13.90;99.90
6373;DHT22;3219;51.362;7.074;2022-09-23T20:51:27;13.90;99.90
6373;DHT22;3219;51.362;7.074;2022-09-23T20:53:55;13.90;99.90
6373;DHT22;3219;51.362;7.074;2022-09-23T20:56:22;13.90;99.90
6373;DHT22;3219;51.362;7.074;2022-09-23T20:58:49;13.90;99.90
6373;DHT22;3219;51.362;7.074;2022-09-23T21:01:17;13.90;99.90
6373;DHT22;3219;51.362;7.074;2022-09-23T21:03:46;13.90;99.90